createdAt,value
2022-11-24T00:01:15.827Z,4.22
2022-11-24T00:03:44.487Z,4.65
2022-11-24T00:06:14.531Z,3.63
2022-11-24T00:08:43.913Z,5.10
2022-11-24T00:11:14.047Z,3.58
2022-11-24T00:13:42.918Z,4.15
2022-11-24T00:16:16.071Z,5.00
2022-11-24T00:18:45.666Z,5.38
2022-11-24T00:21:13.333Z,4.40
2022-11-24T00:23:41.502Z,4.38
2022-11-24T00:26:14.404Z,4.28
2022-11-24T00:28:42.775Z,6.55
2022-11-24T00:31:24.781Z,2.53
2022-11-24T00:33:55.248Z,5.65
2022-11-24T00:36:23.926Z,2.28
2022-11-24T00:38:55.750Z,4.10
2022-11-24T00:41:24.974Z,2.80
2022-11-24T00:43:53.097Z,6.30
2022-11-24T00:46:21.008Z,4.60
2022-11-24T00:48:49.149Z,3.15
2022-11-24T00:51:17.833Z,5.20
2022-11-24T00:53:45.862Z,3.90
2022-11-24T00:56:13.889Z,3.42
2022-11-24T00:58:42.921Z,5.78
2022-11-24T01:01:14.837Z,4.00
2022-11-24T01:03:43.000Z,5.55
2022-11-24T01:06:12.848Z,5.57
2022-11-24T01:08:41.046Z,2.78
2022-11-24T01:11:23.885Z,8.02
2022-11-24T01:13:56.213Z,5.15
2022-11-24T01:16:25.366Z,5.97
2022-11-24T01:18:53.139Z,9.30
2022-11-24T01:21:21.243Z,2.45
2022-11-24T01:23:49.207Z,5.53
2022-11-24T01:26:19.974Z,3.40
2022-11-24T01:28:48.118Z,3.45
2022-11-24T01:31:17.029Z,3.38
2022-11-24T01:33:44.977Z,5.80
2022-11-24T01:36:12.940Z,9.50
2022-11-24T01:38:40.802Z,3.63
2022-11-24T01:41:17.784Z,5.45
2022-11-24T01:43:45.969Z,3.90
2022-11-24T01:46:36.314Z,3.53
2022-11-24T01:49:15.127Z,4.15
2022-11-24T01:51:45.918Z,5.07
2022-11-24T01:54:17.222Z,4.03
2022-11-24T01:56:49.276Z,4.93
2022-11-24T01:59:19.234Z,6.30
2022-11-24T02:01:49.336Z,4.05
2022-11-24T02:04:23.909Z,4.13
2022-11-24T02:06:53.224Z,5.25
2022-11-24T02:09:39.580Z,3.90
2022-11-24T02:12:07.542Z,3.83
2022-11-24T02:14:36.762Z,2.10
2022-11-24T02:17:04.837Z,6.05
2022-11-24T02:19:43.704Z,4.85
2022-11-24T02:22:32.432Z,4.03
2022-11-24T02:25:04.725Z,1.20
2022-11-24T02:27:32.412Z,3.05
2022-11-24T02:30:00.392Z,7.75
2022-11-24T02:32:28.794Z,5.25
2022-11-24T02:35:05.426Z,5.07
2022-11-24T02:37:33.089Z,5.43
2022-11-24T02:40:00.836Z,4.35
2022-11-24T02:42:32.571Z,3.78
2022-11-24T02:45:01.972Z,1.85
2022-11-24T02:47:29.668Z,2.85
2022-11-24T02:49:57.508Z,5.47
2022-11-24T02:52:25.075Z,5.97
2022-11-24T02:54:52.923Z,4.18
2022-11-24T02:57:22.148Z,4.90
2022-11-24T02:59:49.852Z,4.18
2022-11-24T03:02:17.644Z,2.35
2022-11-24T03:04:45.458Z,6.05
2022-11-24T03:07:13.212Z,3.25
2022-11-24T03:09:43.970Z,4.22
2022-11-24T03:12:11.654Z,4.97
2022-11-24T03:14:39.587Z,4.88
2022-11-24T03:17:07.551Z,2.60
2022-11-24T03:19:35.398Z,5.03
2022-11-24T03:22:03.281Z,6.32
2022-11-24T03:24:32.134Z,2.83
2022-11-24T03:27:00.276Z,5.45
2022-11-24T03:29:29.177Z,6.47
2022-11-24T03:31:56.713Z,7.53
2022-11-24T03:34:24.857Z,6.60
2022-11-24T03:36:52.569Z,4.55
2022-11-24T03:39:20.341Z,4.70
2022-11-24T03:41:48.254Z,3.95
2022-11-24T03:44:15.861Z,6.22
2022-11-24T03:46:43.693Z,1.98
2022-11-24T03:49:11.595Z,5.60
2022-11-24T03:51:40.423Z,3.83
2022-11-24T03:54:08.305Z,5.15
2022-11-24T03:56:36.066Z,4.63
2022-11-24T03:59:03.909Z,3.10
2022-11-24T04:01:31.992Z,4.47
2022-11-24T04:03:59.747Z,3.33
2022-11-24T04:06:27.311Z,5.10
2022-11-24T04:08:55.138Z,4.25
2022-11-24T04:11:42.532Z,4.53
2022-11-24T04:14:13.575Z,4.13
2022-11-24T04:16:41.766Z,3.63
2022-11-24T04:19:09.386Z,5.50
2022-11-24T04:21:37.251Z,4.22
2022-11-24T04:24:05.993Z,4.30
2022-11-24T04:26:33.896Z,4.43
2022-11-24T04:29:02.830Z,5.60
2022-11-24T04:31:30.451Z,4.60
2022-11-24T04:34:01.206Z,3.00
2022-11-24T04:36:28.731Z,5.38
2022-11-24T04:39:19.976Z,3.20
2022-11-24T04:41:44.095Z,2.90
2022-11-24T04:44:11.723Z,6.00
2022-11-24T04:46:39.198Z,5.47
2022-11-24T04:49:06.593Z,3.22
2022-11-24T04:51:34.301Z,6.47
2022-11-24T04:54:02.020Z,6.25
2022-11-24T04:56:29.976Z,3.72
2022-11-24T04:58:57.845Z,5.22
2022-11-24T05:01:25.954Z,3.60
2022-11-24T05:03:57.462Z,4.03
2022-11-24T05:06:25.693Z,4.18
2022-11-24T05:08:54.259Z,3.83
2022-11-24T05:11:22.450Z,5.47
2022-11-24T05:13:50.157Z,4.93
2022-11-24T05:16:18.765Z,4.50
2022-11-24T05:18:46.676Z,2.55
2022-11-24T05:21:14.470Z,7.03
2022-11-24T05:23:43.155Z,4.43
2022-11-24T05:26:10.913Z,6.60
2022-11-24T05:28:39.410Z,4.68
2022-11-24T05:31:07.144Z,8.88
2022-11-24T05:33:35.392Z,2.80
2022-11-24T05:36:05.177Z,5.30
2022-11-24T05:38:33.208Z,5.05
2022-11-24T05:41:05.575Z,6.40
2022-11-24T05:43:33.402Z,6.88
2022-11-24T05:46:02.206Z,4.93
2022-11-24T05:48:30.100Z,5.68
2022-11-24T05:50:58.238Z,8.57
2022-11-24T05:53:27.102Z,5.55
2022-11-24T05:55:56.000Z,6.38
2022-11-24T05:58:23.694Z,10.13
2022-11-24T06:00:51.215Z,8.18
2022-11-24T06:03:18.800Z,7.85
2022-11-24T06:05:47.353Z,3.70
2022-11-24T06:08:14.787Z,3.25
2022-11-24T06:10:42.367Z,5.55
2022-11-24T06:13:10.340Z,4.05
2022-11-24T06:15:38.647Z,3.95
2022-11-24T06:18:05.976Z,4.20
2022-11-24T06:20:33.435Z,3.20
2022-11-24T06:23:02.068Z,3.60
2022-11-24T06:25:30.342Z,3.97
2022-11-24T06:27:58.187Z,6.13
2022-11-24T06:30:25.809Z,3.88
2022-11-24T06:32:55.650Z,3.75
2022-11-24T06:35:23.531Z,6.25
2022-11-24T06:37:51.402Z,3.22
2022-11-24T06:40:18.872Z,5.05
2022-11-24T06:42:51.610Z,3.67
2022-11-24T06:45:19.263Z,7.82
2022-11-24T06:47:47.452Z,3.83
2022-11-24T06:50:15.573Z,5.75
2022-11-24T06:52:43.628Z,5.13
2022-11-24T06:55:11.256Z,4.90
2022-11-24T06:57:38.811Z,5.55
2022-11-24T07:00:08.069Z,5.18
2022-11-24T07:02:36.052Z,6.28
2022-11-24T07:05:05.132Z,4.45
2022-11-24T07:07:32.755Z,3.92
2022-11-24T07:10:00.558Z,8.18
2022-11-24T07:12:29.361Z,7.50
2022-11-24T07:14:56.869Z,7.93
2022-11-24T07:17:24.505Z,8.30
2022-11-24T07:19:52.039Z,5.05
2022-11-24T07:22:19.571Z,7.68
2022-11-24T07:24:47.875Z,9.40
2022-11-24T07:27:15.557Z,10.75
2022-11-24T07:29:43.092Z,10.57
2022-11-24T07:32:11.960Z,4.43
2022-11-24T07:34:39.731Z,7.93
2022-11-24T07:37:08.180Z,9.95
2022-11-24T07:39:36.044Z,9.40
2022-11-24T07:42:05.187Z,5.97
2022-11-24T07:44:33.657Z,5.80
2022-11-24T07:47:01.679Z,12.15
2022-11-24T07:49:30.631Z,7.70
2022-11-24T07:51:58.547Z,8.23
2022-11-24T07:54:26.234Z,6.93
2022-11-24T07:56:53.896Z,6.50
2022-11-24T07:59:22.044Z,5.45
2022-11-24T08:01:49.584Z,7.05
2022-11-24T08:04:17.449Z,7.22
2022-11-24T08:06:47.559Z,6.93
2022-11-24T08:11:43.543Z,9.15
2022-11-24T08:14:11.248Z,9.02
2022-11-24T08:16:39.618Z,9.45
2022-11-24T08:19:08.407Z,6.35
2022-11-24T08:21:36.229Z,7.82
2022-11-24T08:24:04.819Z,8.32
2022-11-24T08:26:32.545Z,7.20
2022-11-24T08:29:01.124Z,7.28
2022-11-24T08:31:34.044Z,8.60
2022-11-24T08:34:03.833Z,7.78
2022-11-24T08:36:31.467Z,9.00
2022-11-24T08:39:00.375Z,7.75
2022-11-24T08:41:28.478Z,11.73
2022-11-24T08:43:56.463Z,9.43
2022-11-24T08:46:24.374Z,8.13
2022-11-24T08:48:53.490Z,8.18
2022-11-24T08:51:23.590Z,9.75
2022-11-24T08:53:55.971Z,10.07
2022-11-24T08:56:23.797Z,8.52
2022-11-24T08:58:51.654Z,7.97
2022-11-24T09:01:19.286Z,7.15
2022-11-24T09:03:50.651Z,9.77
2022-11-24T09:06:23.401Z,8.50
2022-11-24T09:08:51.306Z,9.75
2022-11-24T09:11:18.768Z,12.35
2022-11-24T09:13:46.706Z,8.02
2022-11-24T09:16:17.515Z,11.95
2022-11-24T09:18:45.594Z,8.45
2022-11-24T09:21:21.111Z,10.35
2022-11-24T09:23:51.174Z,10.98
2022-11-24T09:26:29.579Z,7.82
2022-11-24T09:28:58.483Z,6.93
2022-11-24T09:31:31.296Z,9.05
2022-11-24T09:33:59.631Z,7.40
2022-11-24T09:36:27.338Z,6.13
2022-11-24T09:38:55.198Z,10.40
2022-11-24T09:41:31.741Z,5.97
2022-11-24T09:44:24.505Z,7.38
2022-11-24T09:47:21.940Z,6.88
2022-11-24T09:50:06.819Z,10.25
2022-11-24T09:52:42.607Z,5.40
2022-11-24T09:55:47.462Z,11.48
2022-11-24T09:58:42.655Z,8.35
2022-11-24T10:01:17.710Z,5.95
2022-11-24T10:03:51.915Z,6.95
2022-11-24T10:07:02.102Z,6.10
2022-11-24T10:09:49.046Z,7.45
2022-11-24T10:13:01.133Z,6.05
2022-11-24T10:16:08.096Z,6.72
2022-11-24T10:18:42.880Z,6.28
2022-11-24T10:21:33.246Z,5.60
2022-11-24T10:24:16.444Z,6.05
2022-11-24T10:27:01.988Z,9.27
2022-11-24T10:29:40.184Z,8.48
2022-11-24T10:32:21.670Z,7.57
2022-11-24T10:34:52.298Z,5.75
2022-11-24T10:37:32.912Z,4.70
2022-11-24T10:43:23.203Z,5.80
2022-11-24T10:45:50.878Z,4.88
2022-11-24T10:48:25.640Z,7.00
2022-11-24T10:51:02.260Z,4.43
2022-11-24T10:53:35.021Z,4.20
2022-11-24T10:56:04.633Z,4.15
2022-11-24T10:58:38.019Z,6.78
2022-11-24T11:01:15.451Z,5.80
2022-11-24T11:04:01.775Z,5.70
2022-11-24T11:06:32.583Z,7.85
2022-11-24T11:09:09.481Z,7.70
2022-11-24T11:11:40.186Z,5.05
2022-11-24T11:14:13.083Z,7.90
2022-11-24T11:16:42.984Z,8.73
2022-11-24T11:19:52.372Z,12.07
2022-11-24T11:22:22.046Z,6.15
2022-11-24T11:25:22.677Z,5.93
2022-11-24T11:27:51.985Z,6.57
2022-11-24T11:36:16.664Z,6.57
2022-11-24T11:38:45.795Z,5.18
2022-11-24T11:41:26.056Z,4.05
2022-11-24T11:44:04.926Z,6.72
2022-11-24T11:46:34.096Z,6.30
2022-11-24T11:49:03.214Z,6.72
2022-11-24T11:51:50.994Z,9.20
2022-11-24T11:54:35.502Z,6.07
2022-11-24T11:57:08.447Z,7.00
2022-11-24T12:00:04.872Z,5.75
2022-11-24T12:02:53.098Z,7.63
2022-11-24T12:08:10.309Z,7.70
2022-11-24T12:10:59.362Z,5.70
2022-11-24T12:13:56.214Z,6.15
2022-11-24T12:16:41.745Z,6.90
2022-11-24T12:19:52.340Z,7.88
2022-11-24T12:22:33.055Z,6.28
2022-11-24T12:25:23.146Z,5.68
2022-11-24T12:28:15.370Z,5.47
2022-11-24T12:30:54.586Z,8.32
2022-11-24T12:33:44.020Z,6.70
2022-11-24T12:36:25.083Z,6.57
2022-11-24T12:39:14.091Z,5.18
2022-11-24T12:42:10.637Z,7.22
2022-11-24T12:44:43.817Z,9.90
2022-11-24T12:47:12.303Z,4.40
2022-11-24T12:49:50.295Z,5.65
2022-11-24T12:52:18.543Z,5.22
2022-11-24T12:54:46.393Z,6.80
2022-11-24T12:57:56.027Z,8.43
2022-11-24T13:00:30.890Z,6.10
2022-11-24T13:03:14.068Z,7.28
2022-11-24T13:05:49.999Z,5.18
2022-11-24T13:08:17.769Z,6.68
2022-11-24T13:10:57.503Z,5.95
2022-11-24T13:13:48.587Z,7.03
2022-11-24T13:19:20.539Z,5.18
2022-11-24T13:22:12.488Z,5.15
2022-11-24T13:24:43.185Z,6.07
2022-11-24T13:27:17.013Z,5.28
2022-11-24T13:29:53.378Z,5.97
2022-11-24T13:32:32.448Z,6.28
2022-11-24T13:35:14.873Z,6.00
2022-11-24T13:37:42.411Z,4.68
2022-11-24T13:40:13.540Z,6.85
2022-11-24T13:43:01.627Z,5.38
2022-11-24T13:45:50.310Z,7.78
2022-11-24T13:48:22.360Z,4.28
2022-11-24T13:50:51.472Z,4.93
2022-11-24T13:53:35.458Z,5.85
2022-11-24T13:56:18.009Z,4.90
2022-11-24T14:01:24.567Z,4.97
2022-11-24T14:04:31.108Z,5.22
2022-11-24T14:07:07.906Z,5.07
2022-11-24T14:09:51.499Z,3.65
2022-11-24T14:12:23.612Z,6.25
2022-11-24T14:14:53.095Z,4.10
2022-11-24T14:17:28.577Z,4.40
2022-11-24T14:19:57.536Z,4.78
2022-11-24T14:22:34.238Z,4.88
2022-11-24T14:25:02.608Z,5.22
2022-11-24T14:27:40.171Z,4.78
2022-11-24T14:30:12.445Z,5.22
2022-11-24T14:32:40.761Z,4.30
2022-11-24T14:35:25.804Z,4.35
2022-11-24T14:37:53.535Z,4.15
2022-11-24T14:40:39.786Z,4.07
2022-11-24T14:43:16.681Z,4.47
2022-11-24T14:45:59.466Z,4.03
2022-11-24T14:48:49.245Z,3.58
2022-11-24T14:51:31.470Z,3.58
2022-11-24T14:54:02.152Z,5.47
2022-11-24T14:56:39.607Z,4.68
2022-11-24T14:59:26.989Z,3.33
2022-11-24T15:01:54.825Z,5.88
2022-11-24T15:05:02.904Z,5.07
2022-11-24T15:07:31.697Z,5.32
2022-11-24T15:10:04.322Z,5.68
2022-11-24T15:12:40.258Z,5.32
2022-11-24T15:15:20.522Z,7.40
2022-11-24T15:17:57.111Z,2.88
2022-11-24T15:20:30.442Z,3.25
2022-11-24T15:23:16.627Z,6.45
2022-11-24T15:25:44.330Z,3.58
2022-11-24T15:28:12.448Z,6.13
2022-11-24T15:30:40.168Z,4.47
2022-11-24T15:33:16.755Z,4.20
2022-11-24T15:35:44.796Z,4.28
2022-11-24T15:38:12.672Z,4.05
2022-11-24T15:40:42.149Z,4.40
2022-11-24T15:43:21.341Z,3.72
2022-11-24T15:45:49.082Z,3.90
2022-11-24T15:48:18.354Z,4.47
2022-11-24T15:50:47.799Z,2.97
2022-11-24T15:53:30.823Z,3.70
2022-11-24T15:55:58.906Z,2.92
2022-11-24T15:58:26.733Z,5.60
2022-11-24T16:00:54.414Z,3.17
2022-11-24T16:03:46.409Z,2.75
2022-11-24T16:06:15.853Z,3.05
2022-11-24T16:08:46.904Z,3.88
2022-11-24T16:11:14.656Z,2.80
2022-11-24T16:13:46.854Z,3.80
2022-11-24T16:16:18.031Z,2.47
2022-11-24T16:18:45.999Z,1.67
2022-11-24T16:21:13.885Z,2.95
2022-11-24T16:23:41.467Z,3.97
2022-11-24T16:26:10.034Z,2.10
2022-11-24T16:28:40.812Z,3.85
2022-11-24T16:31:08.492Z,2.47
2022-11-24T16:33:38.713Z,2.35
2022-11-24T16:38:36.629Z,3.80
2022-11-24T16:41:04.447Z,3.83
2022-11-24T16:43:32.334Z,2.45
2022-11-24T16:46:17.954Z,4.43
2022-11-24T16:48:47.699Z,2.58
2022-11-24T16:51:16.219Z,3.10
2022-11-24T16:53:44.283Z,3.80
2022-11-24T16:56:12.041Z,4.00
2022-11-24T16:58:40.782Z,3.03
2022-11-24T17:01:11.111Z,1.80
2022-11-24T17:03:41.754Z,2.63
2022-11-24T17:06:13.658Z,2.72
2022-11-24T17:08:41.629Z,2.05
2022-11-24T17:11:10.597Z,2.38
2022-11-24T17:13:38.204Z,3.05
2022-11-24T17:16:06.478Z,2.03
2022-11-24T17:18:34.466Z,4.20
2022-11-24T17:21:07.718Z,1.30
2022-11-24T17:23:35.581Z,1.67
2022-11-24T17:26:05.298Z,0.95
2022-11-24T17:28:33.185Z,3.08
2022-11-24T17:31:22.620Z,1.23
2022-11-24T17:33:50.650Z,1.45
2022-11-24T17:36:18.258Z,1.52
2022-11-24T17:38:46.042Z,1.33
2022-11-24T17:41:13.664Z,1.20
2022-11-24T17:43:41.383Z,1.20
2022-11-24T17:46:10.475Z,1.02
2022-11-24T17:48:38.616Z,1.10
2022-11-24T17:51:10.830Z,1.27
2022-11-24T17:53:39.329Z,1.10
2022-11-24T17:56:08.121Z,1.27
2022-11-24T17:58:42.931Z,2.30
2022-11-24T18:01:11.909Z,1.48
2022-11-24T18:03:40.784Z,2.78
2022-11-24T18:06:09.207Z,2.85
2022-11-24T18:08:37.790Z,2.17
2022-11-24T18:11:09.700Z,1.25
2022-11-24T18:16:28.071Z,1.35
2022-11-24T18:19:07.924Z,1.33
2022-11-24T18:21:36.447Z,1.20
2022-11-24T18:24:04.251Z,1.23
2022-11-24T18:26:32.374Z,2.33
2022-11-24T18:29:00.325Z,1.63
2022-11-24T18:31:29.501Z,3.22
2022-11-24T18:33:57.336Z,1.20
2022-11-24T18:36:29.939Z,1.67
2022-11-24T18:39:08.750Z,3.00
2022-11-24T18:41:36.606Z,3.33
2022-11-24T18:44:07.793Z,1.98
2022-11-24T18:46:38.474Z,3.72
2022-11-24T18:49:07.376Z,2.20
2022-11-24T18:51:35.884Z,2.58
2022-11-24T18:54:06.467Z,2.85
2022-11-24T18:56:34.380Z,1.10
2022-11-24T18:59:02.286Z,2.45
2022-11-24T19:01:30.366Z,4.35
2022-11-24T19:03:59.289Z,3.38
2022-11-24T19:06:34.760Z,2.83
2022-11-24T19:09:03.921Z,1.27
2022-11-24T19:11:35.596Z,2.08
2022-11-24T19:14:03.835Z,3.35
2022-11-24T19:16:31.881Z,1.50
2022-11-24T19:19:00.389Z,3.35
2022-11-24T19:21:28.794Z,2.28
2022-11-24T19:24:01.210Z,1.65
2022-11-24T19:26:32.301Z,2.40
2022-11-24T19:29:00.226Z,2.40
2022-11-24T19:31:28.095Z,3.25
2022-11-24T19:33:58.017Z,1.30
2022-11-24T19:36:26.529Z,3.50
2022-11-24T19:38:57.938Z,0.93
2022-11-24T19:41:26.958Z,0.88
2022-11-24T19:43:55.316Z,3.00
2022-11-24T19:46:26.370Z,3.30
2022-11-24T19:48:56.306Z,2.20
2022-11-24T19:51:27.221Z,2.25
2022-11-24T19:53:55.255Z,1.25
2022-11-24T19:56:27.511Z,3.53
2022-11-24T19:58:55.960Z,1.33
2022-11-24T20:01:28.068Z,4.93
2022-11-24T20:04:23.643Z,2.60
2022-11-24T20:06:51.762Z,2.28
2022-11-24T20:09:21.924Z,2.08
2022-11-24T20:11:49.996Z,2.03
2022-11-24T20:14:22.130Z,3.88
2022-11-24T20:16:50.160Z,3.08
2022-11-24T20:19:18.519Z,1.17
2022-11-24T20:21:47.936Z,0.95
2022-11-24T20:24:17.019Z,2.05
2022-11-24T20:26:48.293Z,1.00
2022-11-24T20:29:16.595Z,1.00
2022-11-24T20:31:46.032Z,0.75
2022-11-24T20:34:13.949Z,1.00
2022-11-24T20:36:44.686Z,1.10
2022-11-24T20:39:17.250Z,1.10
2022-11-24T20:41:45.084Z,2.55
2022-11-24T20:44:17.080Z,3.55
2022-11-24T20:46:46.658Z,1.13
2022-11-24T20:49:17.761Z,0.93
2022-11-24T20:51:47.896Z,1.50
2022-11-24T20:54:18.188Z,0.93
2022-11-24T20:56:46.575Z,0.80
2022-11-24T20:59:15.802Z,0.95
2022-11-24T21:01:45.647Z,0.80
2022-11-24T21:04:15.735Z,1.10
2022-11-24T21:06:43.952Z,1.05
2022-11-24T21:09:11.994Z,0.63
2022-11-24T21:11:40.140Z,2.53
2022-11-24T21:14:08.306Z,1.00
2022-11-24T21:16:38.254Z,2.65
2022-11-24T21:19:07.193Z,4.43
2022-11-24T21:21:35.618Z,0.90
2022-11-24T21:24:04.664Z,1.00
2022-11-24T21:26:32.603Z,1.00
2022-11-24T21:29:00.417Z,1.02
2022-11-24T21:31:28.189Z,0.60
2022-11-24T21:33:55.970Z,0.90
2022-11-24T21:36:25.851Z,0.73
2022-11-24T21:38:58.784Z,0.93
2022-11-24T21:41:29.088Z,1.20
2022-11-24T21:46:24.734Z,0.85
2022-11-24T21:48:52.620Z,1.02
2022-11-24T21:51:21.828Z,0.88
2022-11-24T21:53:49.985Z,0.70
2022-11-24T21:56:20.088Z,0.70
2022-11-24T21:58:48.753Z,0.85
2022-11-24T22:01:19.213Z,1.45
2022-11-24T22:03:47.338Z,0.75
2022-11-24T22:06:15.341Z,0.70
2022-11-24T22:08:43.215Z,0.90
2022-11-24T22:11:15.426Z,1.00
2022-11-24T22:13:43.714Z,0.73
2022-11-24T22:16:12.734Z,1.00
2022-11-24T22:18:42.453Z,0.70
2022-11-24T22:21:13.250Z,1.00
2022-11-24T22:23:41.234Z,0.90
2022-11-24T22:26:21.033Z,0.88
2022-11-24T22:28:48.996Z,0.80
2022-11-24T22:31:19.598Z,0.75
2022-11-24T22:33:47.578Z,1.75
2022-11-24T22:36:17.130Z,1.67
2022-11-24T22:38:45.175Z,0.93
2022-11-24T22:41:19.217Z,0.70
2022-11-24T22:43:48.540Z,0.77
2022-11-24T22:46:17.471Z,0.70
2022-11-24T22:48:46.111Z,0.80
2022-11-24T22:51:19.038Z,0.90
2022-11-24T22:53:50.302Z,0.68
2022-11-24T22:56:18.535Z,0.80
2022-11-24T22:58:46.771Z,0.70
2022-11-24T23:01:16.677Z,0.93
2022-11-24T23:03:44.854Z,0.80
2022-11-24T23:06:14.054Z,1.00
2022-11-24T23:08:41.766Z,0.70
2022-11-24T23:11:29.129Z,0.77
2022-11-24T23:14:03.188Z,1.10
2022-11-24T23:16:31.384Z,0.98
2022-11-24T23:18:59.286Z,0.60
2022-11-24T23:21:29.773Z,0.95
2022-11-24T23:24:01.566Z,0.80
2022-11-24T23:26:30.321Z,0.50
2022-11-24T23:28:58.229Z,0.70
2022-11-24T23:31:29.918Z,0.85
2022-11-24T23:34:02.060Z,0.73
2022-11-24T23:36:30.237Z,0.70
2022-11-24T23:38:58.092Z,0.60
2022-11-24T23:41:26.625Z,0.60
2022-11-24T23:43:54.419Z,0.70
2022-11-24T23:46:24.239Z,0.70
2022-11-24T23:48:52.868Z,0.90
2022-11-24T23:51:22.373Z,0.68
2022-11-24T23:53:51.841Z,0.77
2022-11-24T23:56:23.948Z,0.70
2022-11-24T23:58:51.911Z,0.82
